sensor_id;sensor_type;location;lat;lon;timestamp;P1;durP1;ratioP1;P2;durP2;ratioP2
48935;SDS011;34745;52.276;10.528;2023-05-10T00:01:36;10.37;;;4.67;;
48935;SDS011;34745;52.276;10.528;2023-05-10T00:04:03;7.83;;;4.80;;
48935;SDS011;34745;52.276;10.528;2023-05-10T00:06:31;7.73;;;4.30;;
48935;SDS011;34745;52.276;10.528;2023-05-10T00:08:58;6.83;;;4.83;;
48935;SDS011;34745;52.276;10.528;2023-05-10T00:11:26;4.87;;;4.30;;
48935;SDS011;34745;52.276;10.528;2023-05-10T00:13:52;5.10;;;4.20;;
48935;SDS011;34745;52.276;10.528;2023-05-10T00:16:20;8.30;;;4.60;;
48935;SDS011;34745;52.276;10.528;2023-05-10T00:18:46;6.53;;;5.77;;
48935;SDS011;34745;52.276;10.528;2023-05-10T00:21:14;7.20;;;5.07;;
48935;SDS011;34745;52.276;10.528;2023-05-10T00:23:42;13.00;;;4.63;;
48935;SDS011;34745;52.276;10.528;2023-05-10T00:26:09;7.80;;;4.63;;
48935;SDS011;34745;52.276;10.528;2023-05-10T00:28:36;7.50;;;4.90;;
48935;SDS011;34745;52.276;10.528;2023-05-10T00:31:03;4.60;;;4.20;;
48935;SDS011;34745;52.276;10.528;2023-05-10T00:33:30;6.67;;;4.60;;
48935;SDS011;34745;52.276;10.528;2023-05-10T00:35:57;10.33;;;4.70;;
48935;SDS011;34745;52.276;10.528;2023-05-10T00:38:24;7.83;;;4.70;;
48935;SDS011;34745;52.276;10.528;2023-05-10T00:40:52;4.50;;;4.10;;
48935;SDS011;34745;52.276;10.528;2023-05-10T00:43:19;6.93;;;4.33;;
48935;SDS011;34745;52.276;10.528;2023-05-10T00:45:46;5.93;;;4.73;;
48935;SDS011;34745;52.276;10.528;2023-05-10T00:48:13;5.10;;;4.60;;
48935;SDS011;34745;52.276;10.528;2023-05-10T00:50:41;5.03;;;4.50;;
48935;SDS011;34745;52.276;10.528;2023-05-10T00:53:08;5.23;;;4.67;;
48935;SDS011;34745;52.276;10.528;2023-05-10T00:55:36;6.90;;;4.40;;
48935;SDS011;34745;52.276;10.528;2023-05-10T00:58:04;6.00;;;4.50;;
48935;SDS011;34745;52.276;10.528;2023-05-10T01:00:32;5.17;;;4.60;;
48935;SDS011;34745;52.276;10.528;2023-05-10T01:02:59;6.93;;;4.00;;
48935;SDS011;34745;52.276;10.528;2023-05-10T01:05:27;6.47;;;4.90;;
48935;SDS011;34745;52.276;10.528;2023-05-10T01:07:54;5.17;;;4.43;;
48935;SDS011;34745;52.276;10.528;2023-05-10T01:10:22;5.40;;;4.53;;
48935;SDS011;34745;52.276;10.528;2023-05-10T01:12:49;4.80;;;4.40;;
48935;SDS011;34745;52.276;10.528;2023-05-10T01:15:18;6.07;;;4.37;;
48935;SDS011;34745;52.276;10.528;2023-05-10T01:17:47;14.87;;;4.63;;
48935;SDS011;34745;52.276;10.528;2023-05-10T01:20:15;6.47;;;4.93;;
48935;SDS011;34745;52.276;10.528;2023-05-10T01:22:47;5.33;;;4.60;;
48935;SDS011;34745;52.276;10.528;2023-05-10T01:25:32;7.20;;;4.67;;
48935;SDS011;34745;52.276;10.528;2023-05-10T01:28:15;6.87;;;4.70;;
48935;SDS011;34745;52.276;10.528;2023-05-10T01:33:51;6.83;;;4.40;;
48935;SDS011;34745;52.276;10.528;2023-05-10T01:36:23;4.93;;;4.33;;
48935;SDS011;34745;52.276;10.528;2023-05-10T01:38:58;6.37;;;4.10;;
48935;SDS011;34745;52.276;10.528;2023-05-10T01:41:33;5.33;;;4.37;;
48935;SDS011;34745;52.276;10.528;2023-05-10T01:44:09;5.57;;;4.77;;
48935;SDS011;34745;52.276;10.528;2023-05-10T01:46:41;8.17;;;4.80;;
48935;SDS011;34745;52.276;10.528;2023-05-10T01:49:11;8.40;;;4.30;;
48935;SDS011;34745;52.276;10.528;2023-05-10T01:51:47;8.00;;;4.80;;
48935;SDS011;34745;52.276;10.528;2023-05-10T01:54:18;5.87;;;4.90;;
48935;SDS011;34745;52.276;10.528;2023-05-10T01:56:47;5.33;;;4.57;;
48935;SDS011;34745;52.276;10.528;2023-05-10T01:59:18;6.07;;;4.53;;
48935;SDS011;34745;52.276;10.528;2023-05-10T02:01:47;9.53;;;4.60;;
48935;SDS011;34745;52.276;10.528;2023-05-10T02:04:18;9.07;;;4.60;;
48935;SDS011;34745;52.276;10.528;2023-05-10T02:06:48;6.50;;;4.53;;
48935;SDS011;34745;52.276;10.528;2023-05-10T02:09:16;9.17;;;4.97;;
48935;SDS011;34745;52.276;10.528;2023-05-10T02:11:45;5.87;;;4.90;;
48935;SDS011;34745;52.276;10.528;2023-05-10T02:14:13;5.70;;;4.83;;
48935;SDS011;34745;52.276;10.528;2023-05-10T02:16:43;4.50;;;4.10;;
48935;SDS011;34745;52.276;10.528;2023-05-10T02:19:11;7.63;;;5.23;;
48935;SDS011;34745;52.276;10.528;2023-05-10T02:21:41;7.27;;;6.03;;
48935;SDS011;34745;52.276;10.528;2023-05-10T02:24:10;5.67;;;4.63;;
48935;SDS011;34745;52.276;10.528;2023-05-10T02:26:38;7.97;;;5.03;;
48935;SDS011;34745;52.276;10.528;2023-05-10T02:29:06;8.83;;;5.10;;
48935;SDS011;34745;52.276;10.528;2023-05-10T02:31:34;5.97;;;4.90;;
48935;SDS011;34745;52.276;10.528;2023-05-10T02:34:01;6.87;;;4.80;;
48935;SDS011;34745;52.276;10.528;2023-05-10T02:36:30;8.70;;;5.13;;
48935;SDS011;34745;52.276;10.528;2023-05-10T02:38:59;5.70;;;4.93;;
48935;SDS011;34745;52.276;10.528;2023-05-10T02:41:28;8.00;;;5.27;;
48935;SDS011;34745;52.276;10.528;2023-05-10T02:43:59;10.53;;;5.20;;
48935;SDS011;34745;52.276;10.528;2023-05-10T02:46:29;5.10;;;4.53;;
48935;SDS011;34745;52.276;10.528;2023-05-10T02:48:57;5.20;;;4.70;;
48935;SDS011;34745;52.276;10.528;2023-05-10T02:51:25;6.93;;;5.17;;
48935;SDS011;34745;52.276;10.528;2023-05-10T02:53:57;8.37;;;5.20;;
48935;SDS011;34745;52.276;10.528;2023-05-10T02:56:47;6.23;;;4.70;;
48935;SDS011;34745;52.276;10.528;2023-05-10T02:59:17;6.43;;;4.97;;
48935;SDS011;34745;52.276;10.528;2023-05-10T03:01:44;9.57;;;5.60;;
48935;SDS011;34745;52.276;10.528;2023-05-10T03:04:11;8.13;;;5.23;;
48935;SDS011;34745;52.276;10.528;2023-05-10T03:06:38;11.93;;;4.97;;
48935;SDS011;34745;52.276;10.528;2023-05-10T03:09:06;7.13;;;5.17;;
48935;SDS011;34745;52.276;10.528;2023-05-10T03:11:39;7.73;;;4.97;;
48935;SDS011;34745;52.276;10.528;2023-05-10T03:14:17;7.03;;;5.27;;
48935;SDS011;34745;52.276;10.528;2023-05-10T03:16:52;8.10;;;5.63;;
48935;SDS011;34745;52.276;10.528;2023-05-10T03:19:26;8.60;;;4.80;;
48935;SDS011;34745;52.276;10.528;2023-05-10T03:21:59;8.77;;;5.07;;
48935;SDS011;34745;52.276;10.528;2023-05-10T03:24:31;7.03;;;5.30;;
48935;SDS011;34745;52.276;10.528;2023-05-10T03:27:01;6.47;;;5.00;;
48935;SDS011;34745;52.276;10.528;2023-05-10T03:29:30;7.37;;;5.60;;
48935;SDS011;34745;52.276;10.528;2023-05-10T03:31:58;9.87;;;5.40;;
48935;SDS011;34745;52.276;10.528;2023-05-10T03:34:26;6.63;;;5.10;;
48935;SDS011;34745;52.276;10.528;2023-05-10T03:36:53;10.30;;;5.23;;
48935;SDS011;34745;52.276;10.528;2023-05-10T03:39:20;6.20;;;5.20;;
48935;SDS011;34745;52.276;10.528;2023-05-10T03:41:49;6.30;;;5.07;;
48935;SDS011;34745;52.276;10.528;2023-05-10T03:44:17;6.43;;;5.50;;
48935;SDS011;34745;52.276;10.528;2023-05-10T03:46:44;5.93;;;5.23;;
48935;SDS011;34745;52.276;10.528;2023-05-10T03:49:11;6.17;;;5.43;;
48935;SDS011;34745;52.276;10.528;2023-05-10T03:51:38;9.07;;;5.37;;
48935;SDS011;34745;52.276;10.528;2023-05-10T03:54:05;7.07;;;5.90;;
48935;SDS011;34745;52.276;10.528;2023-05-10T03:56:32;6.60;;;5.57;;
48935;SDS011;34745;52.276;10.528;2023-05-10T03:59:01;7.20;;;5.77;;
48935;SDS011;34745;52.276;10.528;2023-05-10T04:01:28;6.97;;;5.63;;
48935;SDS011;34745;52.276;10.528;2023-05-10T04:03:55;8.90;;;5.93;;
48935;SDS011;34745;52.276;10.528;2023-05-10T04:06:22;6.47;;;5.60;;
48935;SDS011;34745;52.276;10.528;2023-05-10T04:08:49;6.83;;;5.90;;
48935;SDS011;34745;52.276;10.528;2023-05-10T04:11:16;7.60;;;5.90;;
48935;SDS011;34745;52.276;10.528;2023-05-10T04:13:43;6.40;;;5.77;;
48935;SDS011;34745;52.276;10.528;2023-05-10T04:16:12;7.10;;;5.87;;
48935;SDS011;34745;52.276;10.528;2023-05-10T04:18:39;9.53;;;5.47;;
48935;SDS011;34745;52.276;10.528;2023-05-10T04:21:10;9.07;;;6.40;;
48935;SDS011;34745;52.276;10.528;2023-05-10T04:23:38;8.87;;;5.80;;
48935;SDS011;34745;52.276;10.528;2023-05-10T04:26:05;8.70;;;6.67;;
48935;SDS011;34745;52.276;10.528;2023-05-10T04:28:32;7.60;;;6.13;;
48935;SDS011;34745;52.276;10.528;2023-05-10T04:31:02;6.70;;;6.00;;
48935;SDS011;34745;52.276;10.528;2023-05-10T04:33:31;6.23;;;5.63;;
48935;SDS011;34745;52.276;10.528;2023-05-10T04:35:59;6.97;;;5.40;;
48935;SDS011;34745;52.276;10.528;2023-05-10T04:38:28;9.17;;;6.20;;
48935;SDS011;34745;52.276;10.528;2023-05-10T04:41:03;11.60;;;6.03;;
48935;SDS011;34745;52.276;10.528;2023-05-10T04:43:30;6.83;;;6.20;;
48935;SDS011;34745;52.276;10.528;2023-05-10T04:45:57;8.83;;;5.83;;
48935;SDS011;34745;52.276;10.528;2023-05-10T04:48:25;6.63;;;5.73;;
48935;SDS011;34745;52.276;10.528;2023-05-10T04:50:53;17.97;;;6.40;;
48935;SDS011;34745;52.276;10.528;2023-05-10T04:53:20;10.20;;;5.90;;
48935;SDS011;34745;52.276;10.528;2023-05-10T04:55:47;10.97;;;6.63;;
48935;SDS011;34745;52.276;10.528;2023-05-10T04:58:15;9.53;;;6.07;;
48935;SDS011;34745;52.276;10.528;2023-05-10T05:00:42;8.00;;;6.13;;
48935;SDS011;34745;52.276;10.528;2023-05-10T05:03:10;8.57;;;6.03;;
48935;SDS011;34745;52.276;10.528;2023-05-10T05:05:37;10.53;;;5.67;;
48935;SDS011;34745;52.276;10.528;2023-05-10T05:08:05;7.87;;;6.37;;
48935;SDS011;34745;52.276;10.528;2023-05-10T05:10:32;7.50;;;6.33;;
48935;SDS011;34745;52.276;10.528;2023-05-10T05:12:59;7.37;;;6.53;;
48935;SDS011;34745;52.276;10.528;2023-05-10T05:15:26;7.10;;;6.27;;
48935;SDS011;34745;52.276;10.528;2023-05-10T05:17:53;9.33;;;6.20;;
48935;SDS011;34745;52.276;10.528;2023-05-10T05:20:20;7.60;;;6.20;;
48935;SDS011;34745;52.276;10.528;2023-05-10T05:22:47;11.40;;;6.13;;
48935;SDS011;34745;52.276;10.528;2023-05-10T05:25:16;8.67;;;6.53;;
48935;SDS011;34745;52.276;10.528;2023-05-10T05:27:43;7.90;;;6.27;;
48935;SDS011;34745;52.276;10.528;2023-05-10T05:30:10;9.77;;;6.60;;
48935;SDS011;34745;52.276;10.528;2023-05-10T05:32:37;8.37;;;6.10;;
48935;SDS011;34745;52.276;10.528;2023-05-10T05:35:05;13.77;;;6.53;;
48935;SDS011;34745;52.276;10.528;2023-05-10T05:37:32;7.33;;;5.77;;
48935;SDS011;34745;52.276;10.528;2023-05-10T05:39:59;11.93;;;6.30;;
48935;SDS011;34745;52.276;10.528;2023-05-10T05:42:29;8.97;;;6.70;;
48935;SDS011;34745;52.276;10.528;2023-05-10T05:44:57;8.20;;;6.70;;
48935;SDS011;34745;52.276;10.528;2023-05-10T05:47:24;10.17;;;6.40;;
48935;SDS011;34745;52.276;10.528;2023-05-10T05:49:51;8.87;;;6.57;;
48935;SDS011;34745;52.276;10.528;2023-05-10T05:52:18;12.30;;;6.03;;
48935;SDS011;34745;52.276;10.528;2023-05-10T05:54:45;10.93;;;6.73;;
48935;SDS011;34745;52.276;10.528;2023-05-10T05:57:12;8.50;;;6.73;;
48935;SDS011;34745;52.276;10.528;2023-05-10T05:59:40;7.47;;;6.23;;
48935;SDS011;34745;52.276;10.528;2023-05-10T06:02:10;7.87;;;5.87;;
48935;SDS011;34745;52.276;10.528;2023-05-10T06:04:37;7.77;;;6.33;;
48935;SDS011;34745;52.276;10.528;2023-05-10T06:07:08;11.37;;;6.53;;
48935;SDS011;34745;52.276;10.528;2023-05-10T06:09:35;7.23;;;6.47;;
48935;SDS011;34745;52.276;10.528;2023-05-10T06:12:02;13.90;;;6.93;;
48935;SDS011;34745;52.276;10.528;2023-05-10T06:14:29;17.27;;;6.93;;
48935;SDS011;34745;52.276;10.528;2023-05-10T06:16:57;9.47;;;6.50;;
48935;SDS011;34745;52.276;10.528;2023-05-10T06:19:26;12.83;;;6.60;;
48935;SDS011;34745;52.276;10.528;2023-05-10T06:21:53;16.90;;;6.50;;
48935;SDS011;34745;52.276;10.528;2023-05-10T06:24:20;8.77;;;6.57;;
48935;SDS011;34745;52.276;10.528;2023-05-10T06:26:48;9.73;;;6.80;;
48935;SDS011;34745;52.276;10.528;2023-05-10T06:29:16;9.17;;;5.90;;
48935;SDS011;34745;52.276;10.528;2023-05-10T06:31:43;9.90;;;7.17;;
48935;SDS011;34745;52.276;10.528;2023-05-10T06:34:11;9.57;;;6.80;;
48935;SDS011;34745;52.276;10.528;2023-05-10T06:36:38;7.83;;;6.10;;
48935;SDS011;34745;52.276;10.528;2023-05-10T06:39:05;7.93;;;6.97;;
48935;SDS011;34745;52.276;10.528;2023-05-10T06:41:33;9.00;;;6.63;;
48935;SDS011;34745;52.276;10.528;2023-05-10T06:43:59;9.30;;;6.53;;
48935;SDS011;34745;52.276;10.528;2023-05-10T06:46:27;11.50;;;7.10;;
48935;SDS011;34745;52.276;10.528;2023-05-10T06:48:53;7.27;;;6.53;;
48935;SDS011;34745;52.276;10.528;2023-05-10T06:51:22;12.47;;;7.63;;
48935;SDS011;34745;52.276;10.528;2023-05-10T06:53:49;8.07;;;7.37;;
48935;SDS011;34745;52.276;10.528;2023-05-10T06:56:16;7.93;;;7.13;;
48935;SDS011;34745;52.276;10.528;2023-05-10T06:58:43;8.97;;;7.53;;
48935;SDS011;34745;52.276;10.528;2023-05-10T07:01:10;17.43;;;8.30;;
48935;SDS011;34745;52.276;10.528;2023-05-10T07:03:37;16.43;;;8.73;;
48935;SDS011;34745;52.276;10.528;2023-05-10T07:06:04;12.50;;;8.53;;
48935;SDS011;34745;52.276;10.528;2023-05-10T07:08:42;13.40;;;9.20;;
48935;SDS011;34745;52.276;10.528;2023-05-10T07:11:09;12.53;;;8.83;;
48935;SDS011;34745;52.276;10.528;2023-05-10T07:13:39;12.10;;;9.83;;
48935;SDS011;34745;52.276;10.528;2023-05-10T07:16:10;13.50;;;9.23;;
48935;SDS011;34745;52.276;10.528;2023-05-10T07:18:37;13.80;;;9.47;;
48935;SDS011;34745;52.276;10.528;2023-05-10T07:21:05;11.90;;;9.10;;
48935;SDS011;34745;52.276;10.528;2023-05-10T07:23:32;9.97;;;8.20;;
48935;SDS011;34745;52.276;10.528;2023-05-10T07:26:01;13.53;;;8.73;;
48935;SDS011;34745;52.276;10.528;2023-05-10T07:28:28;11.07;;;9.10;;
48935;SDS011;34745;52.276;10.528;2023-05-10T07:30:55;11.07;;;8.83;;
48935;SDS011;34745;52.276;10.528;2023-05-10T07:33:22;12.47;;;10.17;;
48935;SDS011;34745;52.276;10.528;2023-05-10T07:35:49;11.33;;;9.73;;
48935;SDS011;34745;52.276;10.528;2023-05-10T07:38:16;11.47;;;9.70;;
48935;SDS011;34745;52.276;10.528;2023-05-10T07:40:44;10.80;;;9.33;;
48935;SDS011;34745;52.276;10.528;2023-05-10T07:43:12;12.07;;;9.50;;
48935;SDS011;34745;52.276;10.528;2023-05-10T07:45:39;14.77;;;10.80;;
48935;SDS011;34745;52.276;10.528;2023-05-10T07:48:06;18.00;;;11.30;;
48935;SDS011;34745;52.276;10.528;2023-05-10T07:50:34;14.80;;;10.60;;
48935;SDS011;34745;52.276;10.528;2023-05-10T07:53:00;14.73;;;10.80;;
48935;SDS011;34745;52.276;10.528;2023-05-10T07:55:28;16.70;;;11.70;;
48935;SDS011;34745;52.276;10.528;2023-05-10T07:57:55;16.97;;;11.47;;
48935;SDS011;34745;52.276;10.528;2023-05-10T08:00:24;13.30;;;10.73;;
48935;SDS011;34745;52.276;10.528;2023-05-10T08:02:50;15.53;;;11.20;;
48935;SDS011;34745;52.276;10.528;2023-05-10T08:05:18;13.73;;;10.87;;
48935;SDS011;34745;52.276;10.528;2023-05-10T08:07:45;15.60;;;11.47;;
48935;SDS011;34745;52.276;10.528;2023-05-10T08:10:12;13.40;;;10.90;;
48935;SDS011;34745;52.276;10.528;2023-05-10T08:12:39;14.27;;;10.03;;
48935;SDS011;34745;52.276;10.528;2023-05-10T08:15:06;12.80;;;11.40;;
48935;SDS011;34745;52.276;10.528;2023-05-10T08:17:36;14.83;;;10.80;;
48935;SDS011;34745;52.276;10.528;2023-05-10T08:20:04;14.53;;;10.87;;
48935;SDS011;34745;52.276;10.528;2023-05-10T08:22:31;13.93;;;10.80;;
48935;SDS011;34745;52.276;10.528;2023-05-10T08:24:58;11.80;;;10.50;;
48935;SDS011;34745;52.276;10.528;2023-05-10T08:27:25;13.27;;;10.30;;
48935;SDS011;34745;52.276;10.528;2023-05-10T08:29:52;13.43;;;10.20;;
48935;SDS011;34745;52.276;10.528;2023-05-10T08:32:19;17.70;;;10.97;;
48935;SDS011;34745;52.276;10.528;2023-05-10T08:34:47;14.67;;;11.03;;
48935;SDS011;34745;52.276;10.528;2023-05-10T08:37:14;14.20;;;11.03;;
48935;SDS011;34745;52.276;10.528;2023-05-10T08:39:41;17.87;;;11.60;;
48935;SDS011;34745;52.276;10.528;2023-05-10T08:42:08;15.53;;;11.47;;
48935;SDS011;34745;52.276;10.528;2023-05-10T08:44:36;18.33;;;11.30;;
48935;SDS011;34745;52.276;10.528;2023-05-10T08:47:04;19.90;;;11.27;;
48935;SDS011;34745;52.276;10.528;2023-05-10T08:49:33;15.57;;;10.93;;
48935;SDS011;34745;52.276;10.528;2023-05-10T08:52:03;17.00;;;11.33;;
48935;SDS011;34745;52.276;10.528;2023-05-10T08:54:32;18.63;;;11.70;;
48935;SDS011;34745;52.276;10.528;2023-05-10T08:57:00;23.40;;;12.37;;
48935;SDS011;34745;52.276;10.528;2023-05-10T08:59:27;15.83;;;11.43;;
48935;SDS011;34745;52.276;10.528;2023-05-10T09:01:55;19.10;;;12.73;;
48935;SDS011;34745;52.276;10.528;2023-05-10T09:04:24;15.87;;;11.80;;
48935;SDS011;34745;52.276;10.528;2023-05-10T09:06:51;12.50;;;11.17;;
48935;SDS011;34745;52.276;10.528;2023-05-10T09:09:20;16.53;;;11.60;;
48935;SDS011;34745;52.276;10.528;2023-05-10T09:11:48;13.07;;;11.17;;
48935;SDS011;34745;52.276;10.528;2023-05-10T09:14:16;11.83;;;10.60;;
48935;SDS011;34745;52.276;10.528;2023-05-10T09:16:43;14.27;;;11.40;;
48935;SDS011;34745;52.276;10.528;2023-05-10T09:19:11;13.90;;;11.13;;
48935;SDS011;34745;52.276;10.528;2023-05-10T09:21:38;14.23;;;11.97;;
48935;SDS011;34745;52.276;10.528;2023-05-10T09:24:05;15.73;;;12.57;;
48935;SDS011;34745;52.276;10.528;2023-05-10T09:26:34;17.27;;;12.83;;
48935;SDS011;34745;52.276;10.528;2023-05-10T09:29:02;24.80;;;17.23;;
48935;SDS011;34745;52.276;10.528;2023-05-10T09:34:17;15.67;;;13.57;;
48935;SDS011;34745;52.276;10.528;2023-05-10T09:36:52;20.40;;;13.10;;
48935;SDS011;34745;52.276;10.528;2023-05-10T09:39:20;19.00;;;12.57;;
48935;SDS011;34745;52.276;10.528;2023-05-10T09:41:48;15.00;;;12.47;;
48935;SDS011;34745;52.276;10.528;2023-05-10T09:44:18;16.60;;;13.40;;
48935;SDS011;34745;52.276;10.528;2023-05-10T09:46:49;17.57;;;12.43;;
48935;SDS011;34745;52.276;10.528;2023-05-10T09:49:17;16.50;;;13.17;;
48935;SDS011;34745;52.276;10.528;2023-05-10T09:51:44;17.37;;;12.87;;
48935;SDS011;34745;52.276;10.528;2023-05-10T09:54:12;15.43;;;11.13;;
48935;SDS011;34745;52.276;10.528;2023-05-10T09:56:40;9.77;;;8.77;;
48935;SDS011;34745;52.276;10.528;2023-05-10T09:59:09;9.10;;;7.93;;
48935;SDS011;34745;52.276;10.528;2023-05-10T10:01:37;9.63;;;6.63;;
48935;SDS011;34745;52.276;10.528;2023-05-10T10:04:05;9.33;;;6.30;;
48935;SDS011;34745;52.276;10.528;2023-05-10T10:06:37;3.47;;;3.17;;
48935;SDS011;34745;52.276;10.528;2023-05-10T10:09:05;2.63;;;2.40;;
48935;SDS011;34745;52.276;10.528;2023-05-10T10:11:33;2.63;;;2.50;;
48935;SDS011;34745;52.276;10.528;2023-05-10T10:14:01;3.73;;;2.60;;
48935;SDS011;34745;52.276;10.528;2023-05-10T10:16:29;3.50;;;2.30;;
48935;SDS011;34745;52.276;10.528;2023-05-10T10:18:58;2.50;;;2.30;;
48935;SDS011;34745;52.276;10.528;2023-05-10T10:21:25;3.17;;;2.50;;
48935;SDS011;34745;52.276;10.528;2023-05-10T10:23:52;2.40;;;2.20;;
48935;SDS011;34745;52.276;10.528;2023-05-10T10:26:20;2.37;;;1.90;;
48935;SDS011;34745;52.276;10.528;2023-05-10T10:28:49;1.47;;;1.37;;
48935;SDS011;34745;52.276;10.528;2023-05-10T10:31:27;1.60;;;1.40;;
48935;SDS011;34745;52.276;10.528;2023-05-10T10:34:03;2.17;;;1.60;;
48935;SDS011;34745;52.276;10.528;2023-05-10T10:36:33;1.40;;;1.30;;
48935;SDS011;34745;52.276;10.528;2023-05-10T10:39:08;2.40;;;1.30;;
48935;SDS011;34745;52.276;10.528;2023-05-10T10:41:39;1.70;;;1.20;;
48935;SDS011;34745;52.276;10.528;2023-05-10T10:44:24;2.00;;;1.10;;
48935;SDS011;34745;52.276;10.528;2023-05-10T10:47:04;3.73;;;1.60;;
48935;SDS011;34745;52.276;10.528;2023-05-10T10:49:38;1.40;;;1.30;;
48935;SDS011;34745;52.276;10.528;2023-05-10T10:52:14;1.23;;;1.20;;
48935;SDS011;34745;52.276;10.528;2023-05-10T10:54:49;1.10;;;1.10;;
48935;SDS011;34745;52.276;10.528;2023-05-10T10:57:18;4.50;;;1.17;;
48935;SDS011;34745;52.276;10.528;2023-05-10T10:59:45;2.63;;;2.00;;
48935;SDS011;34745;52.276;10.528;2023-05-10T11:05:22;2.33;;;1.80;;
48935;SDS011;34745;52.276;10.528;2023-05-10T11:07:51;1.33;;;1.33;;
48935;SDS011;34745;52.276;10.528;2023-05-10T11:10:19;1.57;;;1.50;;
48935;SDS011;34745;52.276;10.528;2023-05-10T11:12:53;1.60;;;1.50;;
48935;SDS011;34745;52.276;10.528;2023-05-10T11:15:30;1.90;;;1.30;;
48935;SDS011;34745;52.276;10.528;2023-05-10T11:18:00;3.00;;;1.53;;
48935;SDS011;34745;52.276;10.528;2023-05-10T11:20:44;1.50;;;1.33;;
48935;SDS011;34745;52.276;10.528;2023-05-10T11:23:15;2.30;;;1.80;;
48935;SDS011;34745;52.276;10.528;2023-05-10T11:25:44;4.73;;;1.40;;
48935;SDS011;34745;52.276;10.528;2023-05-10T11:28:12;1.50;;;1.40;;
48935;SDS011;34745;52.276;10.528;2023-05-10T11:30:39;1.47;;;1.47;;
48935;SDS011;34745;52.276;10.528;2023-05-10T11:33:08;6.03;;;1.87;;
48935;SDS011;34745;52.276;10.528;2023-05-10T11:35:36;4.80;;;1.90;;
48935;SDS011;34745;52.276;10.528;2023-05-10T11:38:08;26.60;;;17.10;;
48935;SDS011;34745;52.276;10.528;2023-05-10T11:40:37;2.00;;;1.90;;
48935;SDS011;34745;52.276;10.528;2023-05-10T11:43:04;3.03;;;1.70;;
48935;SDS011;34745;52.276;10.528;2023-05-10T11:45:33;1.80;;;1.70;;
48935;SDS011;34745;52.276;10.528;2023-05-10T11:48:00;1.87;;;1.77;;
48935;SDS011;34745;52.276;10.528;2023-05-10T11:50:29;2.40;;;1.90;;
48935;SDS011;34745;52.276;10.528;2023-05-10T11:52:56;1.57;;;1.47;;
48935;SDS011;34745;52.276;10.528;2023-05-10T11:55:24;3.77;;;1.50;;
48935;SDS011;34745;52.276;10.528;2023-05-10T11:57:52;3.63;;;1.47;;
48935;SDS011;34745;52.276;10.528;2023-05-10T12:00:20;1.57;;;1.10;;
48935;SDS011;34745;52.276;10.528;2023-05-10T12:02:47;1.57;;;1.10;;
48935;SDS011;34745;52.276;10.528;2023-05-10T12:05:15;3.37;;;1.30;;
48935;SDS011;34745;52.276;10.528;2023-05-10T12:07:44;4.33;;;1.30;;
48935;SDS011;34745;52.276;10.528;2023-05-10T12:10:11;4.83;;;1.20;;
48935;SDS011;34745;52.276;10.528;2023-05-10T12:12:46;1.50;;;1.40;;
48935;SDS011;34745;52.276;10.528;2023-05-10T12:15:17;2.23;;;1.20;;
48935;SDS011;34745;52.276;10.528;2023-05-10T12:17:46;1.13;;;1.13;;
48935;SDS011;34745;52.276;10.528;2023-05-10T12:20:14;2.33;;;1.20;;
48935;SDS011;34745;52.276;10.528;2023-05-10T12:22:50;4.50;;;1.30;;
48935;SDS011;34745;52.276;10.528;2023-05-10T12:25:19;1.43;;;1.10;;
48935;SDS011;34745;52.276;10.528;2023-05-10T12:27:50;1.75;;;1.45;;
48935;SDS011;34745;52.276;10.528;2023-05-10T12:30:19;2.72;;;1.70;;
48935;SDS011;34745;52.276;10.528;2023-05-10T12:32:47;1.42;;;1.30;;
48935;SDS011;34745;52.276;10.528;2023-05-10T12:35:14;3.28;;;1.40;;
48935;SDS011;34745;52.276;10.528;2023-05-10T12:37:42;2.13;;;2.00;;
48935;SDS011;34745;52.276;10.528;2023-05-10T12:40:11;9.00;;;3.13;;
48935;SDS011;34745;52.276;10.528;2023-05-10T12:42:38;1.60;;;1.50;;
48935;SDS011;34745;52.276;10.528;2023-05-10T12:45:06;1.58;;;1.25;;
48935;SDS011;34745;52.276;10.528;2023-05-10T12:47:34;1.90;;;1.30;;
48935;SDS011;34745;52.276;10.528;2023-05-10T12:50:02;2.78;;;1.25;;
48935;SDS011;34745;52.276;10.528;2023-05-10T12:52:30;2.53;;;1.20;;
48935;SDS011;34745;52.276;10.528;2023-05-10T12:54:58;1.48;;;1.38;;
48935;SDS011;34745;52.276;10.528;2023-05-10T12:57:27;2.83;;;1.40;;
48935;SDS011;34745;52.276;10.528;2023-05-10T12:59:54;2.03;;;1.35;;
48935;SDS011;34745;52.276;10.528;2023-05-10T13:02:21;2.28;;;1.55;;
48935;SDS011;34745;52.276;10.528;2023-05-10T13:04:49;2.25;;;1.50;;
48935;SDS011;34745;52.276;10.528;2023-05-10T13:07:16;2.70;;;1.67;;
48935;SDS011;34745;52.276;10.528;2023-05-10T13:09:43;2.80;;;1.33;;
48935;SDS011;34745;52.276;10.528;2023-05-10T13:12:10;2.38;;;1.55;;
48935;SDS011;34745;52.276;10.528;2023-05-10T13:14:39;3.10;;;1.50;;
48935;SDS011;34745;52.276;10.528;2023-05-10T13:17:07;1.35;;;1.20;;
48935;SDS011;34745;52.276;10.528;2023-05-10T13:19:34;4.53;;;1.50;;
48935;SDS011;34745;52.276;10.528;2023-05-10T13:22:03;2.92;;;1.23;;
48935;SDS011;34745;52.276;10.528;2023-05-10T13:24:30;2.22;;;1.42;;
48935;SDS011;34745;52.276;10.528;2023-05-10T13:26:57;2.10;;;1.52;;
48935;SDS011;34745;52.276;10.528;2023-05-10T13:29:24;4.78;;;1.80;;
48935;SDS011;34745;52.276;10.528;2023-05-10T13:31:53;3.53;;;1.95;;
48935;SDS011;34745;52.276;10.528;2023-05-10T13:34:20;3.00;;;1.60;;
48935;SDS011;34745;52.276;10.528;2023-05-10T13:36:47;1.88;;;1.60;;
48935;SDS011;34745;52.276;10.528;2023-05-10T13:39:15;3.10;;;1.40;;
48935;SDS011;34745;52.276;10.528;2023-05-10T13:41:42;1.30;;;1.20;;
48935;SDS011;34745;52.276;10.528;2023-05-10T13:44:11;3.45;;;1.50;;
48935;SDS011;34745;52.276;10.528;2023-05-10T13:46:39;6.10;;;1.70;;
48935;SDS011;34745;52.276;10.528;2023-05-10T13:49:08;3.03;;;1.80;;
48935;SDS011;34745;52.276;10.528;2023-05-10T13:51:35;1.70;;;1.60;;
48935;SDS011;34745;52.276;10.528;2023-05-10T13:54:02;4.82;;;1.77;;
48935;SDS011;34745;52.276;10.528;2023-05-10T13:56:29;5.22;;;2.15;;
48935;SDS011;34745;52.276;10.528;2023-05-10T13:58:56;1.88;;;1.60;;
48935;SDS011;34745;52.276;10.528;2023-05-10T14:01:24;3.05;;;1.73;;
48935;SDS011;34745;52.276;10.528;2023-05-10T14:03:51;3.25;;;1.80;;
48935;SDS011;34745;52.276;10.528;2023-05-10T14:06:20;2.50;;;1.60;;
48935;SDS011;34745;52.276;10.528;2023-05-10T14:08:47;1.70;;;1.60;;
48935;SDS011;34745;52.276;10.528;2023-05-10T14:11:13;2.03;;;1.67;;
48935;SDS011;34745;52.276;10.528;2023-05-10T14:13:41;2.90;;;1.60;;
48935;SDS011;34745;52.276;10.528;2023-05-10T14:16:08;2.28;;;1.48;;
48935;SDS011;34745;52.276;10.528;2023-05-10T14:18:35;1.40;;;1.30;;
48935;SDS011;34745;52.276;10.528;2023-05-10T14:21:02;2.55;;;1.73;;
48935;SDS011;34745;52.276;10.528;2023-05-10T14:23:31;2.67;;;1.60;;
48935;SDS011;34745;52.276;10.528;2023-05-10T14:25:58;2.53;;;1.40;;
48935;SDS011;34745;52.276;10.528;2023-05-10T14:28:25;1.73;;;1.40;;
48935;SDS011;34745;52.276;10.528;2023-05-10T14:30:52;1.50;;;1.35;;
48935;SDS011;34745;52.276;10.528;2023-05-10T14:33:19;2.15;;;1.30;;
48935;SDS011;34745;52.276;10.528;2023-05-10T14:35:47;2.05;;;1.13;;
48935;SDS011;34745;52.276;10.528;2023-05-10T14:38:14;1.83;;;1.20;;
48935;SDS011;34745;52.276;10.528;2023-05-10T14:40:42;2.20;;;1.33;;
48935;SDS011;34745;52.276;10.528;2023-05-10T14:43:10;2.03;;;1.42;;
48935;SDS011;34745;52.276;10.528;2023-05-10T14:45:37;1.45;;;1.25;;